sensor_id;sensor_type;location;lat;lon;timestamp;P1;durP1;ratioP1;P2;durP2;ratioP2
34583;SDS011;53696;52.738;4.752;2023-04-25T00:02:26;5.78;;;2.53;;
34583;SDS011;53696;52.738;4.752;2023-04-25T00:04:54;5.20;;;2.22;;
34583;SDS011;53696;52.738;4.752;2023-04-25T00:07:25;4.80;;;2.20;;
34583;SDS011;53696;52.738;4.752;2023-04-25T00:09:53;6.97;;;2.47;;
34583;SDS011;53696;52.738;4.752;2023-04-25T00:12:20;4.95;;;1.92;;
34583;SDS011;53696;52.738;4.752;2023-04-25T00:14:50;5.53;;;2.10;;
34583;SDS011;53696;52.738;4.752;2023-04-25T00:17:19;3.53;;;2.08;;
34583;SDS011;53696;52.738;4.752;2023-04-25T00:19:46;8.88;;;2.65;;
34583;SDS011;53696;52.738;4.752;2023-04-25T00:22:14;4.80;;;2.63;;
34583;SDS011;53696;52.738;4.752;2023-04-25T00:24:42;5.10;;;1.90;;
34583;SDS011;53696;52.738;4.752;2023-04-25T00:27:09;5.95;;;2.08;;
34583;SDS011;53696;52.738;4.752;2023-04-25T00:29:37;5.65;;;2.30;;
34583;SDS011;53696;52.738;4.752;2023-04-25T00:32:06;5.20;;;2.53;;
34583;SDS011;53696;52.738;4.752;2023-04-25T00:34:34;3.42;;;2.05;;
34583;SDS011;53696;52.738;4.752;2023-04-25T00:37:02;4.20;;;1.90;;
34583;SDS011;53696;52.738;4.752;2023-04-25T00:39:29;5.25;;;2.22;;
34583;SDS011;53696;52.738;4.752;2023-04-25T00:41:57;5.15;;;2.08;;
34583;SDS011;53696;52.738;4.752;2023-04-25T00:44:25;7.70;;;2.17;;
34583;SDS011;53696;52.738;4.752;2023-04-25T00:46:55;5.07;;;2.15;;
34583;SDS011;53696;52.738;4.752;2023-04-25T00:49:25;5.90;;;2.30;;
34583;SDS011;53696;52.738;4.752;2023-04-25T00:51:52;4.93;;;2.03;;
34583;SDS011;53696;52.738;4.752;2023-04-25T00:54:20;4.32;;;1.88;;
34583;SDS011;53696;52.738;4.752;2023-04-25T00:56:48;6.18;;;2.25;;
34583;SDS011;53696;52.738;4.752;2023-04-25T00:59:16;8.00;;;2.13;;
34583;SDS011;53696;52.738;4.752;2023-04-25T01:01:45;5.63;;;2.25;;
34583;SDS011;53696;52.738;4.752;2023-04-25T01:04:13;5.28;;;2.10;;
34583;SDS011;53696;52.738;4.752;2023-04-25T01:06:42;6.55;;;2.13;;
34583;SDS011;53696;52.738;4.752;2023-04-25T01:09:11;7.05;;;2.00;;
34583;SDS011;53696;52.738;4.752;2023-04-25T01:11:39;2.85;;;1.67;;
34583;SDS011;53696;52.738;4.752;2023-04-25T01:14:07;4.68;;;2.33;;
34583;SDS011;53696;52.738;4.752;2023-04-25T01:16:35;7.40;;;2.22;;
34583;SDS011;53696;52.738;4.752;2023-04-25T01:19:04;3.85;;;1.83;;
34583;SDS011;53696;52.738;4.752;2023-04-25T01:21:37;4.72;;;1.95;;
34583;SDS011;53696;52.738;4.752;2023-04-25T01:24:05;3.95;;;1.75;;
34583;SDS011;53696;52.738;4.752;2023-04-25T01:26:33;3.88;;;2.33;;
34583;SDS011;53696;52.738;4.752;2023-04-25T01:29:03;8.38;;;2.10;;
34583;SDS011;53696;52.738;4.752;2023-04-25T01:31:31;3.92;;;1.67;;
34583;SDS011;53696;52.738;4.752;2023-04-25T01:34:00;4.82;;;2.05;;
34583;SDS011;53696;52.738;4.752;2023-04-25T01:36:28;5.00;;;2.08;;
34583;SDS011;53696;52.738;4.752;2023-04-25T01:38:57;4.93;;;1.90;;
34583;SDS011;53696;52.738;4.752;2023-04-25T01:41:25;7.88;;;1.75;;
34583;SDS011;53696;52.738;4.752;2023-04-25T01:43:54;6.43;;;1.75;;
34583;SDS011;53696;52.738;4.752;2023-04-25T01:46:22;4.20;;;2.25;;
34583;SDS011;53696;52.738;4.752;2023-04-25T01:48:49;5.47;;;2.40;;
34583;SDS011;53696;52.738;4.752;2023-04-25T01:51:17;5.60;;;2.42;;
34583;SDS011;53696;52.738;4.752;2023-04-25T01:53:45;4.55;;;2.00;;
34583;SDS011;53696;52.738;4.752;2023-04-25T01:56:15;5.05;;;1.88;;
34583;SDS011;53696;52.738;4.752;2023-04-25T01:58:42;7.32;;;2.30;;
34583;SDS011;53696;52.738;4.752;2023-04-25T02:01:10;4.45;;;1.50;;
34583;SDS011;53696;52.738;4.752;2023-04-25T02:03:38;2.60;;;1.85;;
34583;SDS011;53696;52.738;4.752;2023-04-25T02:06:07;5.20;;;1.95;;
34583;SDS011;53696;52.738;4.752;2023-04-25T02:08:34;4.10;;;1.63;;
34583;SDS011;53696;52.738;4.752;2023-04-25T02:11:03;2.78;;;1.35;;
34583;SDS011;53696;52.738;4.752;2023-04-25T02:13:32;3.88;;;1.63;;
34583;SDS011;53696;52.738;4.752;2023-04-25T02:16:00;3.47;;;1.45;;
34583;SDS011;53696;52.738;4.752;2023-04-25T02:18:28;4.00;;;1.70;;
34583;SDS011;53696;52.738;4.752;2023-04-25T02:20:57;5.32;;;2.40;;
34583;SDS011;53696;52.738;4.752;2023-04-25T02:23:26;3.72;;;1.70;;
34583;SDS011;53696;52.738;4.752;2023-04-25T02:25:54;4.85;;;1.73;;
34583;SDS011;53696;52.738;4.752;2023-04-25T02:28:24;3.83;;;1.52;;
34583;SDS011;53696;52.738;4.752;2023-04-25T02:30:53;2.83;;;1.80;;
34583;SDS011;53696;52.738;4.752;2023-04-25T02:33:21;5.45;;;1.60;;
34583;SDS011;53696;52.738;4.752;2023-04-25T02:35:49;2.65;;;1.38;;
34583;SDS011;53696;52.738;4.752;2023-04-25T02:38:17;3.85;;;2.00;;
34583;SDS011;53696;52.738;4.752;2023-04-25T02:40:44;2.72;;;1.30;;
34583;SDS011;53696;52.738;4.752;2023-04-25T02:43:12;5.60;;;1.75;;
34583;SDS011;53696;52.738;4.752;2023-04-25T02:45:42;3.40;;;1.48;;
34583;SDS011;53696;52.738;4.752;2023-04-25T02:48:11;4.40;;;1.70;;
34583;SDS011;53696;52.738;4.752;2023-04-25T02:50:39;3.15;;;1.75;;
34583;SDS011;53696;52.738;4.752;2023-04-25T02:53:07;4.10;;;1.55;;
34583;SDS011;53696;52.738;4.752;2023-04-25T02:55:35;12.20;;;2.17;;
34583;SDS011;53696;52.738;4.752;2023-04-25T02:58:03;5.03;;;1.90;;
34583;SDS011;53696;52.738;4.752;2023-04-25T03:00:30;1.65;;;1.30;;
34583;SDS011;53696;52.738;4.752;2023-04-25T03:02:58;3.30;;;1.48;;
34583;SDS011;53696;52.738;4.752;2023-04-25T03:05:28;5.32;;;1.80;;
34583;SDS011;53696;52.738;4.752;2023-04-25T03:07:56;6.03;;;1.58;;
34583;SDS011;53696;52.738;4.752;2023-04-25T03:10:24;5.68;;;1.90;;
34583;SDS011;53696;52.738;4.752;2023-04-25T03:12:52;2.25;;;1.48;;
34583;SDS011;53696;52.738;4.752;2023-04-25T03:15:20;5.63;;;1.40;;
34583;SDS011;53696;52.738;4.752;2023-04-25T03:17:48;3.17;;;1.70;;
34583;SDS011;53696;52.738;4.752;2023-04-25T03:20:16;1.73;;;1.27;;
34583;SDS011;53696;52.738;4.752;2023-04-25T03:22:45;3.65;;;1.42;;
34583;SDS011;53696;52.738;4.752;2023-04-25T03:25:13;4.50;;;1.70;;
34583;SDS011;53696;52.738;4.752;2023-04-25T03:27:41;2.80;;;1.50;;
34583;SDS011;53696;52.738;4.752;2023-04-25T03:30:09;2.85;;;1.48;;
34583;SDS011;53696;52.738;4.752;2023-04-25T03:32:37;2.75;;;1.73;;
34583;SDS011;53696;52.738;4.752;2023-04-25T03:35:05;3.13;;;1.92;;
34583;SDS011;53696;52.738;4.752;2023-04-25T03:37:33;2.10;;;1.27;;
34583;SDS011;53696;52.738;4.752;2023-04-25T03:40:03;6.50;;;2.10;;
34583;SDS011;53696;52.738;4.752;2023-04-25T03:42:32;3.38;;;1.73;;
34583;SDS011;53696;52.738;4.752;2023-04-25T03:45:00;5.00;;;1.70;;
34583;SDS011;53696;52.738;4.752;2023-04-25T03:47:28;4.57;;;1.75;;
34583;SDS011;53696;52.738;4.752;2023-04-25T03:49:56;5.28;;;1.83;;
34583;SDS011;53696;52.738;4.752;2023-04-25T03:52:24;5.28;;;1.48;;
34583;SDS011;53696;52.738;4.752;2023-04-25T03:54:52;5.38;;;1.65;;
34583;SDS011;53696;52.738;4.752;2023-04-25T03:57:22;3.42;;;1.58;;
34583;SDS011;53696;52.738;4.752;2023-04-25T03:59:50;4.72;;;1.48;;
34583;SDS011;53696;52.738;4.752;2023-04-25T04:02:18;3.85;;;1.45;;
34583;SDS011;53696;52.738;4.752;2023-04-25T04:04:46;4.60;;;1.88;;
34583;SDS011;53696;52.738;4.752;2023-04-25T04:07:14;5.68;;;2.15;;
34583;SDS011;53696;52.738;4.752;2023-04-25T04:09:42;4.03;;;1.80;;
34583;SDS011;53696;52.738;4.752;2023-04-25T04:12:10;5.95;;;2.17;;
34583;SDS011;53696;52.738;4.752;2023-04-25T04:14:39;3.80;;;1.80;;
34583;SDS011;53696;52.738;4.752;2023-04-25T04:17:07;4.43;;;2.15;;
34583;SDS011;53696;52.738;4.752;2023-04-25T04:19:35;3.95;;;1.67;;
34583;SDS011;53696;52.738;4.752;2023-04-25T04:22:03;3.40;;;1.80;;
34583;SDS011;53696;52.738;4.752;2023-04-25T04:24:31;3.50;;;1.50;;
34583;SDS011;53696;52.738;4.752;2023-04-25T04:26:59;4.70;;;1.77;;
34583;SDS011;53696;52.738;4.752;2023-04-25T04:29:27;4.10;;;1.52;;
34583;SDS011;53696;52.738;4.752;2023-04-25T04:31:56;3.15;;;1.55;;
34583;SDS011;53696;52.738;4.752;2023-04-25T04:34:24;4.32;;;1.42;;
34583;SDS011;53696;52.738;4.752;2023-04-25T04:36:53;5.20;;;1.92;;
34583;SDS011;53696;52.738;4.752;2023-04-25T04:39:21;4.15;;;2.00;;
34583;SDS011;53696;52.738;4.752;2023-04-25T04:41:48;4.57;;;1.40;;
34583;SDS011;53696;52.738;4.752;2023-04-25T04:44:17;2.92;;;1.33;;
34583;SDS011;53696;52.738;4.752;2023-04-25T04:46:44;5.63;;;1.67;;
34583;SDS011;53696;52.738;4.752;2023-04-25T04:49:14;2.28;;;1.05;;
34583;SDS011;53696;52.738;4.752;2023-04-25T04:51:42;3.70;;;1.33;;
34583;SDS011;53696;52.738;4.752;2023-04-25T04:54:11;7.25;;;1.45;;
34583;SDS011;53696;52.738;4.752;2023-04-25T04:56:39;3.85;;;1.58;;
34583;SDS011;53696;52.738;4.752;2023-04-25T04:59:08;4.72;;;1.50;;
34583;SDS011;53696;52.738;4.752;2023-04-25T05:01:36;4.45;;;1.70;;
34583;SDS011;53696;52.738;4.752;2023-04-25T05:04:04;3.67;;;1.50;;
34583;SDS011;53696;52.738;4.752;2023-04-25T05:06:35;1.05;;;0.90;;
34583;SDS011;53696;52.738;4.752;2023-04-25T05:09:03;4.95;;;1.52;;
34583;SDS011;53696;52.738;4.752;2023-04-25T05:11:31;3.67;;;1.58;;
34583;SDS011;53696;52.738;4.752;2023-04-25T05:13:58;3.15;;;1.42;;
34583;SDS011;53696;52.738;4.752;2023-04-25T05:16:26;2.80;;;1.48;;
34583;SDS011;53696;52.738;4.752;2023-04-25T05:18:54;2.40;;;1.10;;
34583;SDS011;53696;52.738;4.752;2023-04-25T05:21:22;3.53;;;1.65;;
34583;SDS011;53696;52.738;4.752;2023-04-25T05:23:51;5.53;;;1.95;;
34583;SDS011;53696;52.738;4.752;2023-04-25T05:26:20;6.78;;;1.77;;
34583;SDS011;53696;52.738;4.752;2023-04-25T05:28:47;3.90;;;1.75;;
34583;SDS011;53696;52.738;4.752;2023-04-25T05:31:17;3.00;;;1.48;;
34583;SDS011;53696;52.738;4.752;2023-04-25T05:33:44;2.22;;;1.33;;
34583;SDS011;53696;52.738;4.752;2023-04-25T05:36:12;2.25;;;1.10;;
34583;SDS011;53696;52.738;4.752;2023-04-25T05:38:40;4.32;;;1.40;;
34583;SDS011;53696;52.738;4.752;2023-04-25T05:41:10;2.15;;;1.30;;
34583;SDS011;53696;52.738;4.752;2023-04-25T05:43:38;3.20;;;1.40;;
34583;SDS011;53696;52.738;4.752;2023-04-25T05:46:11;1.58;;;1.17;;
34583;SDS011;53696;52.738;4.752;2023-04-25T05:48:39;3.80;;;1.85;;
34583;SDS011;53696;52.738;4.752;2023-04-25T05:51:07;3.63;;;1.23;;
34583;SDS011;53696;52.738;4.752;2023-04-25T05:53:35;3.58;;;1.25;;
34583;SDS011;53696;52.738;4.752;2023-04-25T05:56:03;1.63;;;1.23;;
34583;SDS011;53696;52.738;4.752;2023-04-25T05:58:33;3.65;;;1.40;;
34583;SDS011;53696;52.738;4.752;2023-04-25T06:01:01;3.40;;;1.80;;
34583;SDS011;53696;52.738;4.752;2023-04-25T06:03:29;2.45;;;1.30;;
34583;SDS011;53696;52.738;4.752;2023-04-25T06:05:59;4.25;;;1.27;;
34583;SDS011;53696;52.738;4.752;2023-04-25T06:08:27;3.28;;;1.40;;
34583;SDS011;53696;52.738;4.752;2023-04-25T06:10:55;2.83;;;1.20;;
34583;SDS011;53696;52.738;4.752;2023-04-25T06:13:24;5.53;;;1.50;;
34583;SDS011;53696;52.738;4.752;2023-04-25T06:15:53;2.55;;;1.20;;
34583;SDS011;53696;52.738;4.752;2023-04-25T06:18:21;4.78;;;1.42;;
34583;SDS011;53696;52.738;4.752;2023-04-25T06:20:48;2.58;;;1.20;;
34583;SDS011;53696;52.738;4.752;2023-04-25T06:23:17;3.28;;;1.25;;
34583;SDS011;53696;52.738;4.752;2023-04-25T06:25:44;3.13;;;1.35;;
34583;SDS011;53696;52.738;4.752;2023-04-25T06:28:12;2.92;;;1.30;;
34583;SDS011;53696;52.738;4.752;2023-04-25T06:30:40;2.55;;;1.40;;
34583;SDS011;53696;52.738;4.752;2023-04-25T06:33:09;3.58;;;1.40;;
34583;SDS011;53696;52.738;4.752;2023-04-25T06:35:37;2.65;;;1.30;;
34583;SDS011;53696;52.738;4.752;2023-04-25T06:38:05;3.35;;;1.88;;
34583;SDS011;53696;52.738;4.752;2023-04-25T06:40:32;2.78;;;1.45;;
34583;SDS011;53696;52.738;4.752;2023-04-25T06:43:00;2.90;;;1.45;;
34583;SDS011;53696;52.738;4.752;2023-04-25T06:45:28;3.65;;;1.60;;
34583;SDS011;53696;52.738;4.752;2023-04-25T06:47:57;1.90;;;1.20;;
34583;SDS011;53696;52.738;4.752;2023-04-25T06:50:26;2.95;;;1.35;;
34583;SDS011;53696;52.738;4.752;2023-04-25T06:52:54;3.75;;;1.67;;
34583;SDS011;53696;52.738;4.752;2023-04-25T06:55:22;2.47;;;1.02;;
34583;SDS011;53696;52.738;4.752;2023-04-25T06:57:50;3.47;;;1.30;;
34583;SDS011;53696;52.738;4.752;2023-04-25T07:00:19;2.03;;;1.25;;
34583;SDS011;53696;52.738;4.752;2023-04-25T07:02:47;5.03;;;1.83;;
34583;SDS011;53696;52.738;4.752;2023-04-25T07:05:17;1.92;;;1.10;;
34583;SDS011;53696;52.738;4.752;2023-04-25T07:07:46;3.65;;;1.35;;
34583;SDS011;53696;52.738;4.752;2023-04-25T07:10:14;4.43;;;1.50;;
34583;SDS011;53696;52.738;4.752;2023-04-25T07:12:41;2.83;;;1.48;;
34583;SDS011;53696;52.738;4.752;2023-04-25T07:15:09;2.10;;;1.40;;
34583;SDS011;53696;52.738;4.752;2023-04-25T07:17:37;3.17;;;1.60;;
34583;SDS011;53696;52.738;4.752;2023-04-25T07:20:06;3.08;;;1.55;;
34583;SDS011;53696;52.738;4.752;2023-04-25T07:22:35;4.88;;;1.42;;
34583;SDS011;53696;52.738;4.752;2023-04-25T07:25:05;4.63;;;1.40;;
34583;SDS011;53696;52.738;4.752;2023-04-25T07:27:35;2.63;;;1.48;;
34583;SDS011;53696;52.738;4.752;2023-04-25T07:30:03;2.53;;;1.42;;
34583;SDS011;53696;52.738;4.752;2023-04-25T07:32:32;3.70;;;1.52;;
34583;SDS011;53696;52.738;4.752;2023-04-25T07:35:01;2.42;;;1.20;;
34583;SDS011;53696;52.738;4.752;2023-04-25T07:37:30;2.92;;;1.10;;
34583;SDS011;53696;52.738;4.752;2023-04-25T07:39:58;2.78;;;1.75;;
34583;SDS011;53696;52.738;4.752;2023-04-25T07:42:27;1.77;;;1.00;;
34583;SDS011;53696;52.738;4.752;2023-04-25T07:44:55;3.08;;;1.13;;
34583;SDS011;53696;52.738;4.752;2023-04-25T07:47:23;3.17;;;1.00;;
34583;SDS011;53696;52.738;4.752;2023-04-25T07:49:51;2.15;;;1.27;;
34583;SDS011;53696;52.738;4.752;2023-04-25T07:52:19;2.15;;;1.20;;
34583;SDS011;53696;52.738;4.752;2023-04-25T07:54:47;2.65;;;1.00;;
34583;SDS011;53696;52.738;4.752;2023-04-25T07:57:15;3.63;;;1.17;;
34583;SDS011;53696;52.738;4.752;2023-04-25T07:59:45;5.85;;;1.48;;
34583;SDS011;53696;52.738;4.752;2023-04-25T08:02:13;3.67;;;2.00;;
34583;SDS011;53696;52.738;4.752;2023-04-25T08:04:41;2.63;;;0.88;;
34583;SDS011;53696;52.738;4.752;2023-04-25T08:07:09;4.63;;;1.98;;
34583;SDS011;53696;52.738;4.752;2023-04-25T08:09:37;8.20;;;1.20;;
34583;SDS011;53696;52.738;4.752;2023-04-25T08:12:05;44.50;;;4.60;;
34583;SDS011;53696;52.738;4.752;2023-04-25T08:14:33;58.13;;;6.38;;
34583;SDS011;53696;52.738;4.752;2023-04-25T08:17:05;67.70;;;8.73;;
34583;SDS011;53696;52.738;4.752;2023-04-25T08:19:34;57.75;;;8.15;;
34583;SDS011;53696;52.738;4.752;2023-04-25T08:22:02;44.15;;;6.97;;
34583;SDS011;53696;52.738;4.752;2023-04-25T08:24:30;39.33;;;4.82;;
34583;SDS011;53696;52.738;4.752;2023-04-25T08:26:57;42.13;;;6.32;;
34583;SDS011;53696;52.738;4.752;2023-04-25T08:29:27;31.08;;;5.03;;
34583;SDS011;53696;52.738;4.752;2023-04-25T08:31:55;41.13;;;5.65;;
34583;SDS011;53696;52.738;4.752;2023-04-25T08:34:25;24.80;;;3.95;;
34583;SDS011;53696;52.738;4.752;2023-04-25T08:36:53;25.92;;;5.68;;
34583;SDS011;53696;52.738;4.752;2023-04-25T08:39:21;32.42;;;4.63;;
34583;SDS011;53696;52.738;4.752;2023-04-25T08:41:49;24.35;;;3.63;;
34583;SDS011;53696;52.738;4.752;2023-04-25T08:44:18;32.58;;;4.40;;
34583;SDS011;53696;52.738;4.752;2023-04-25T08:46:48;23.85;;;4.05;;
34583;SDS011;53696;52.738;4.752;2023-04-25T08:49:18;20.40;;;3.80;;
34583;SDS011;53696;52.738;4.752;2023-04-25T08:51:48;16.38;;;2.88;;
34583;SDS011;53696;52.738;4.752;2023-04-25T08:54:17;10.13;;;2.92;;
34583;SDS011;53696;52.738;4.752;2023-04-25T08:57:02;16.08;;;2.55;;
34583;SDS011;53696;52.738;4.752;2023-04-25T08:59:31;17.50;;;3.08;;
34583;SDS011;53696;52.738;4.752;2023-04-25T09:02:02;10.88;;;2.50;;
34583;SDS011;53696;52.738;4.752;2023-04-25T09:04:31;9.85;;;2.53;;
34583;SDS011;53696;52.738;4.752;2023-04-25T09:07:00;21.05;;;2.78;;
34583;SDS011;53696;52.738;4.752;2023-04-25T09:09:29;10.75;;;3.00;;
34583;SDS011;53696;52.738;4.752;2023-04-25T09:11:56;8.75;;;1.92;;
34583;SDS011;53696;52.738;4.752;2023-04-25T09:14:26;13.65;;;2.83;;
34583;SDS011;53696;52.738;4.752;2023-04-25T09:17:03;11.75;;;3.17;;
34583;SDS011;53696;52.738;4.752;2023-04-25T09:19:35;10.65;;;2.97;;
34583;SDS011;53696;52.738;4.752;2023-04-25T09:22:09;15.82;;;3.10;;
34583;SDS011;53696;52.738;4.752;2023-04-25T09:24:37;14.45;;;2.28;;
34583;SDS011;53696;52.738;4.752;2023-04-25T09:27:08;11.10;;;2.63;;
34583;SDS011;53696;52.738;4.752;2023-04-25T09:29:38;8.32;;;2.10;;
34583;SDS011;53696;52.738;4.752;2023-04-25T09:32:25;14.55;;;2.72;;
34583;SDS011;53696;52.738;4.752;2023-04-25T09:34:53;11.68;;;2.40;;
34583;SDS011;53696;52.738;4.752;2023-04-25T09:37:25;9.57;;;2.13;;
34583;SDS011;53696;52.738;4.752;2023-04-25T09:39:57;12.77;;;3.85;;
34583;SDS011;53696;52.738;4.752;2023-04-25T09:42:29;8.23;;;3.08;;
34583;SDS011;53696;52.738;4.752;2023-04-25T09:44:58;22.77;;;2.90;;
34583;SDS011;53696;52.738;4.752;2023-04-25T09:47:28;19.83;;;4.45;;
34583;SDS011;53696;52.738;4.752;2023-04-25T09:49:56;15.02;;;3.30;;
34583;SDS011;53696;52.738;4.752;2023-04-25T09:52:26;12.13;;;2.35;;
34583;SDS011;53696;52.738;4.752;2023-04-25T09:54:54;12.45;;;2.72;;
34583;SDS011;53696;52.738;4.752;2023-04-25T09:57:22;16.50;;;2.60;;
34583;SDS011;53696;52.738;4.752;2023-04-25T09:59:52;10.18;;;2.40;;
34583;SDS011;53696;52.738;4.752;2023-04-25T10:02:23;15.35;;;3.25;;
34583;SDS011;53696;52.738;4.752;2023-04-25T10:04:52;14.88;;;3.33;;
34583;SDS011;53696;52.738;4.752;2023-04-25T10:07:22;17.23;;;3.65;;
34583;SDS011;53696;52.738;4.752;2023-04-25T10:09:55;9.50;;;3.22;;
34583;SDS011;53696;52.738;4.752;2023-04-25T10:12:26;14.20;;;3.42;;
34583;SDS011;53696;52.738;4.752;2023-04-25T10:14:54;15.23;;;3.88;;
34583;SDS011;53696;52.738;4.752;2023-04-25T10:17:22;18.55;;;4.38;;
34583;SDS011;53696;52.738;4.752;2023-04-25T10:19:50;11.63;;;2.92;;
34583;SDS011;53696;52.738;4.752;2023-04-25T10:22:20;13.18;;;3.10;;
34583;SDS011;53696;52.738;4.752;2023-04-25T10:24:57;19.65;;;3.78;;
34583;SDS011;53696;52.738;4.752;2023-04-25T10:27:26;13.48;;;3.88;;
34583;SDS011;53696;52.738;4.752;2023-04-25T10:30:00;13.80;;;3.25;;
34583;SDS011;53696;52.738;4.752;2023-04-25T10:32:31;9.43;;;2.80;;
34583;SDS011;53696;52.738;4.752;2023-04-25T10:35:09;11.02;;;2.88;;
34583;SDS011;53696;52.738;4.752;2023-04-25T10:37:38;11.15;;;3.00;;
34583;SDS011;53696;52.738;4.752;2023-04-25T10:40:24;10.85;;;3.78;;
34583;SDS011;53696;52.738;4.752;2023-04-25T10:42:53;8.02;;;3.13;;
34583;SDS011;53696;52.738;4.752;2023-04-25T10:45:22;9.23;;;3.00;;
34583;SDS011;53696;52.738;4.752;2023-04-25T10:47:50;5.55;;;2.75;;
34583;SDS011;53696;52.738;4.752;2023-04-25T10:50:17;7.10;;;2.80;;
34583;SDS011;53696;52.738;4.752;2023-04-25T10:52:45;11.20;;;3.00;;
34583;SDS011;53696;52.738;4.752;2023-04-25T10:55:13;9.98;;;3.22;;
34583;SDS011;53696;52.738;4.752;2023-04-25T10:57:44;6.53;;;2.28;;
34583;SDS011;53696;52.738;4.752;2023-04-25T11:00:15;8.10;;;2.17;;
34583;SDS011;53696;52.738;4.752;2023-04-25T11:02:46;10.23;;;2.55;;
34583;SDS011;53696;52.738;4.752;2023-04-25T11:05:20;11.43;;;3.10;;
34583;SDS011;53696;52.738;4.752;2023-04-25T11:07:50;7.30;;;2.58;;
34583;SDS011;53696;52.738;4.752;2023-04-25T11:10:33;5.18;;;2.63;;
34583;SDS011;53696;52.738;4.752;2023-04-25T11:13:04;8.48;;;2.15;;
34583;SDS011;53696;52.738;4.752;2023-04-25T11:15:32;11.35;;;2.40;;
34583;SDS011;53696;52.738;4.752;2023-04-25T11:18:00;9.75;;;3.15;;
34583;SDS011;53696;52.738;4.752;2023-04-25T11:20:29;9.35;;;3.67;;
34583;SDS011;53696;52.738;4.752;2023-04-25T11:22:58;7.63;;;2.45;;
34583;SDS011;53696;52.738;4.752;2023-04-25T11:25:27;10.75;;;2.78;;
34583;SDS011;53696;52.738;4.752;2023-04-25T11:27:57;8.18;;;2.85;;
34583;SDS011;53696;52.738;4.752;2023-04-25T11:30:29;16.50;;;2.70;;
34583;SDS011;53696;52.738;4.752;2023-04-25T11:32:57;7.68;;;2.63;;
34583;SDS011;53696;52.738;4.752;2023-04-25T11:35:26;9.43;;;2.35;;
34583;SDS011;53696;52.738;4.752;2023-04-25T11:37:54;7.68;;;2.55;;
34583;SDS011;53696;52.738;4.752;2023-04-25T11:40:23;5.13;;;1.98;;
34583;SDS011;53696;52.738;4.752;2023-04-25T11:42:51;6.78;;;2.35;;
34583;SDS011;53696;52.738;4.752;2023-04-25T11:45:20;4.00;;;1.73;;
34583;SDS011;53696;52.738;4.752;2023-04-25T11:47:51;8.00;;;1.98;;
34583;SDS011;53696;52.738;4.752;2023-04-25T11:50:20;8.88;;;2.83;;
34583;SDS011;53696;52.738;4.752;2023-04-25T11:52:48;5.03;;;2.25;;
34583;SDS011;53696;52.738;4.752;2023-04-25T11:55:17;6.90;;;2.28;;
34583;SDS011;53696;52.738;4.752;2023-04-25T11:57:46;5.72;;;1.73;;
34583;SDS011;53696;52.738;4.752;2023-04-25T12:00:17;5.30;;;2.50;;
34583;SDS011;53696;52.738;4.752;2023-04-25T12:02:47;8.88;;;2.45;;
34583;SDS011;53696;52.738;4.752;2023-04-25T12:05:21;9.60;;;2.50;;
34583;SDS011;53696;52.738;4.752;2023-04-25T12:08:09;8.52;;;2.40;;
34583;SDS011;53696;52.738;4.752;2023-04-25T12:10:38;5.18;;;2.00;;
34583;SDS011;53696;52.738;4.752;2023-04-25T12:13:20;6.78;;;2.85;;
34583;SDS011;53696;52.738;4.752;2023-04-25T12:15:49;11.73;;;2.33;;
34583;SDS011;53696;52.738;4.752;2023-04-25T12:18:18;5.15;;;1.70;;
34583;SDS011;53696;52.738;4.752;2023-04-25T12:20:50;3.38;;;2.25;;
34583;SDS011;53696;52.738;4.752;2023-04-25T12:23:24;5.75;;;2.08;;
34583;SDS011;53696;52.738;4.752;2023-04-25T12:25:53;5.60;;;2.00;;
34583;SDS011;53696;52.738;4.752;2023-04-25T12:28:22;6.70;;;1.80;;
34583;SDS011;53696;52.738;4.752;2023-04-25T12:30:54;8.00;;;2.27;;
34583;SDS011;53696;52.738;4.752;2023-04-25T12:33:24;3.75;;;1.60;;
34583;SDS011;53696;52.738;4.752;2023-04-25T12:35:54;6.38;;;2.00;;
34583;SDS011;53696;52.738;4.752;2023-04-25T12:38:23;6.70;;;1.92;;
34583;SDS011;53696;52.738;4.752;2023-04-25T12:40:52;4.25;;;1.85;;
34583;SDS011;53696;52.738;4.752;2023-04-25T12:43:21;5.18;;;2.40;;
34583;SDS011;53696;52.738;4.752;2023-04-25T12:45:49;2.78;;;1.50;;
34583;SDS011;53696;52.738;4.752;2023-04-25T12:48:17;4.40;;;1.50;;
34583;SDS011;53696;52.738;4.752;2023-04-25T12:50:45;4.90;;;2.00;;
34583;SDS011;53696;52.738;4.752;2023-04-25T12:53:17;4.18;;;2.00;;
34583;SDS011;53696;52.738;4.752;2023-04-25T12:55:45;5.80;;;1.92;;
34583;SDS011;53696;52.738;4.752;2023-04-25T12:58:13;3.45;;;1.38;;
34583;SDS011;53696;52.738;4.752;2023-04-25T13:00:42;5.72;;;1.88;;
34583;SDS011;53696;52.738;4.752;2023-04-25T13:03:10;7.60;;;2.00;;
34583;SDS011;53696;52.738;4.752;2023-04-25T13:05:39;5.20;;;2.08;;
34583;SDS011;53696;52.738;4.752;2023-04-25T13:08:07;3.13;;;1.58;;
34583;SDS011;53696;52.738;4.752;2023-04-25T13:10:37;4.55;;;1.50;;
34583;SDS011;53696;52.738;4.752;2023-04-25T13:13:05;6.18;;;2.03;;
34583;SDS011;53696;52.738;4.752;2023-04-25T13:15:33;10.63;;;1.70;;
34583;SDS011;53696;52.738;4.752;2023-04-25T13:18:02;9.13;;;1.80;;
34583;SDS011;53696;52.738;4.752;2023-04-25T13:20:32;6.03;;;1.67;;
34583;SDS011;53696;52.738;4.752;2023-04-25T13:23:00;5.28;;;2.17;;
34583;SDS011;53696;52.738;4.752;2023-04-25T13:25:28;8.13;;;1.90;;
34583;SDS011;53696;52.738;4.752;2023-04-25T13:27:57;8.98;;;1.83;;
34583;SDS011;53696;52.738;4.752;2023-04-25T13:30:26;6.15;;;1.45;;
34583;SDS011;53696;52.738;4.752;2023-04-25T13:32:54;6.60;;;1.45;;
34583;SDS011;53696;52.738;4.752;2023-04-25T13:35:23;8.68;;;2.35;;
34583;SDS011;53696;52.738;4.752;2023-04-25T13:37:50;9.82;;;2.60;;
34583;SDS011;53696;52.738;4.752;2023-04-25T13:40:18;8.20;;;2.00;;
34583;SDS011;53696;52.738;4.752;2023-04-25T13:42:49;9.68;;;1.92;;
34583;SDS011;53696;52.738;4.752;2023-04-25T13:45:19;5.05;;;1.85;;
34583;SDS011;53696;52.738;4.752;2023-04-25T13:47:47;8.38;;;2.10;;
34583;SDS011;53696;52.738;4.752;2023-04-25T13:50:16;6.28;;;2.42;;
34583;SDS011;53696;52.738;4.752;2023-04-25T13:52:44;7.70;;;1.80;;
34583;SDS011;53696;52.738;4.752;2023-04-25T13:55:12;8.40;;;1.92;;
34583;SDS011;53696;52.738;4.752;2023-04-25T13:57:40;7.35;;;1.92;;
34583;SDS011;53696;52.738;4.752;2023-04-25T14:00:08;10.57;;;2.45;;
34583;SDS011;53696;52.738;4.752;2023-04-25T14:02:38;11.82;;;2.58;;
34583;SDS011;53696;52.738;4.752;2023-04-25T14:05:07;10.13;;;2.42;;
34583;SDS011;53696;52.738;4.752;2023-04-25T14:07:36;7.57;;;2.30;;
34583;SDS011;53696;52.738;4.752;2023-04-25T14:10:04;11.85;;;2.70;;
34583;SDS011;53696;52.738;4.752;2023-04-25T14:12:33;9.35;;;2.08;;
34583;SDS011;53696;52.738;4.752;2023-04-25T14:15:01;15.18;;;2.50;;
34583;SDS011;53696;52.738;4.752;2023-04-25T14:17:29;7.38;;;2.85;;
34583;SDS011;53696;52.738;4.752;2023-04-25T14:19:59;7.75;;;2.50;;
34583;SDS011;53696;52.738;4.752;2023-04-25T14:22:27;7.65;;;1.98;;
34583;SDS011;53696;52.738;4.752;2023-04-25T14:24:54;7.10;;;2.33;;
34583;SDS011;53696;52.738;4.752;2023-04-25T14:27:22;10.20;;;2.33;;
34583;SDS011;53696;52.738;4.752;2023-04-25T14:29:54;10.93;;;2.45;;
34583;SDS011;53696;52.738;4.752;2023-04-25T14:32:22;5.40;;;2.30;;
34583;SDS011;53696;52.738;4.752;2023-04-25T14:34:51;10.52;;;2.78;;
34583;SDS011;53696;52.738;4.752;2023-04-25T14:37:20;6.18;;;2.03;;
34583;SDS011;53696;52.738;4.752;2023-04-25T14:39:47;10.82;;;2.63;;
34583;SDS011;53696;52.738;4.752;2023-04-25T14:42:15;6.75;;;2.00;;
34583;SDS011;53696;52.738;4.752;2023-04-25T14:44:44;5.05;;;2.17;;
34583;SDS011;53696;52.738;4.752;2023-04-25T14:47:12;8.35;;;2.08;;
34583;SDS011;53696;52.738;4.752;2023-04-25T14:49:40;7.38;;;2.20;;
34583;SDS011;53696;52.738;4.752;2023-04-25T14:52:08;4.88;;;2.03;;
34583;SDS011;53696;52.738;4.752;2023-04-25T14:54:38;8.95;;;2.45;;
34583;SDS011;53696;52.738;4.752;2023-04-25T14:57:06;8.18;;;2.90;;